<?xml version='1.0' encoding='UTF-8'?>
<gpx xmlns="http://www.topografix.com/GPX/1/1" creator="www.balnam.be" version="1.1" xmlns:xsi="http://www.w3.org/2001/XMLSchema-instance" xsi:schemaLocation="http://www.topografix.com/GPX/1/1 http://www.topografix.com/GPX/1/1/gpx.xsd">
<trk>
<name>lflir4</name>
<cmt>v</cmt>
<desc>Ivoz-Ramet Chemin n°4 </desc>
<link href="https://chemins.be/ivozramet/chemin/4"/><trkseg>
<trkpt lat="50.582988" lon="5.423289"><time>2026-05-02T18:18:15Z</time></trkpt>
<trkpt lat="50.582699" lon="5.423452"><time>2026-05-02T18:28:15Z</time></trkpt>
<trkpt lat="50.582356" lon="5.423585"><time>2026-05-02T18:38:15Z</time></trkpt>
<trkpt lat="50.581959" lon="5.423760"><time>2026-05-02T18:48:15Z</time></trkpt>
<trkpt lat="50.581330" lon="5.424249"><time>2026-05-02T18:58:15Z</time></trkpt>
</trkseg></trk>
<trk>
<name>lflir4</name>
<cmt>r</cmt>
<desc>Ivoz-Ramet Chemin n°4 </desc>
<link href="https://chemins.be/ivozramet/chemin/4"/><trkseg>
<trkpt lat="50.581330" lon="5.424249"><time>2026-05-02T18:58:15Z</time></trkpt>
<trkpt lat="50.580951" lon="5.424370"><time>2026-05-02T19:08:15Z</time></trkpt>
<trkpt lat="50.580390" lon="5.423620"><time>2026-05-02T19:18:15Z</time></trkpt>
</trkseg></trk>
<trk>
<name>lflir4</name>
<cmt>v</cmt>
<desc>Ivoz-Ramet Chemin n°4 </desc>
<link href="https://chemins.be/ivozramet/chemin/4"/><trkseg>
<trkpt lat="50.580390" lon="5.423620"><time>2026-05-02T19:18:15Z</time></trkpt>
<trkpt lat="50.578100" lon="5.421324"><time>2026-05-02T19:28:15Z</time></trkpt>
</trkseg></trk>
<trk>
<name>lflir4</name>
<cmt>q</cmt>
<desc>Ivoz-Ramet Chemin n°4 </desc>
<link href="https://chemins.be/ivozramet/chemin/4"/><trkseg>
<trkpt lat="50.578100" lon="5.421324"><time>2026-05-02T19:28:15Z</time></trkpt>
<trkpt lat="50.577188" lon="5.421538"><time>2026-05-02T19:38:15Z</time></trkpt>
<trkpt lat="50.574136" lon="5.430808"><time>2026-05-02T19:48:15Z</time></trkpt>
<trkpt lat="50.572282" lon="5.431280"><time>2026-05-02T19:58:15Z</time></trkpt>
<trkpt lat="50.571328" lon="5.434070"><time>2026-05-02T20:08:15Z</time></trkpt>
</trkseg></trk>
<trk>
<name>lflir4</name>
<cmt>v</cmt>
<desc>Ivoz-Ramet Chemin n°4 </desc>
<link href="https://chemins.be/ivozramet/chemin/4"/><trkseg>
<trkpt lat="50.571328" lon="5.434070"><time>2026-05-02T20:08:15Z</time></trkpt>
<trkpt lat="50.568575" lon="5.436473"><time>2026-05-02T20:18:15Z</time></trkpt>
<trkpt lat="50.567684" lon="5.436225"><time>2026-05-02T20:28:15Z</time></trkpt>
</trkseg></trk>
<trk>
<name>lflir4</name>
<cmt>q</cmt>
<desc>Ivoz-Ramet Chemin n°4 </desc>
<link href="https://chemins.be/ivozramet/chemin/4"/><trkseg>
<trkpt lat="50.567684" lon="5.436225"><time>2026-05-02T20:28:15Z</time></trkpt>
<trkpt lat="50.567501" lon="5.435972"><time>2026-05-02T20:38:15Z</time></trkpt>
</trkseg></trk>
<trk>
<name>lflir4</name>
<cmt>d</cmt>
<desc>Ivoz-Ramet Chemin n°4 </desc>
<link href="https://chemins.be/ivozramet/chemin/4"/><trkseg>
<trkpt lat="50.567501" lon="5.435972"><time>2026-05-02T20:38:15Z</time></trkpt>
<trkpt lat="50.566744" lon="5.435222"><time>2026-05-02T20:48:15Z</time></trkpt>
<trkpt lat="50.564705" lon="5.434887"><time>2026-05-02T20:58:15Z</time></trkpt>
<trkpt lat="50.564192" lon="5.435564"><time>2026-05-02T21:08:15Z</time></trkpt>
<trkpt lat="50.563625" lon="5.435809"><time>2026-05-02T21:18:15Z</time></trkpt>
</trkseg>
</trk>
</gpx>